This is the latest recevied weather packets stored in our database for station/object W4VCO. If no packets are shown the sender has not sent any weather packets the latest 10 day(s).
| Time | Temp. | Humidity | Pressure | Rain* | Wind** | Luminosity | Snow |
|---|---|---|---|---|---|---|---|
| 1777090542 | 21.67° C | 89% | 1011.6 hPa | 0.76 mm | - | - | - |
| 1777089641 | 21.67° C | 87% | 1011.4 hPa | 0.76 mm | - | - | - |
| 1777089340 | 21.67° C | 86% | 1011.6 hPa | 0.76 mm | - | - | - |
| 1777088441 | 22.22° C | 83% | 1011.5 hPa | 0 mm | - | - | - |
| 1777087538 | 22.78° C | 79% | 1011.3 hPa | 0 mm | - | - | - |
| 1777085739 | 23.89° C | 68% | 1011.3 hPa | 0 mm | - | - | - |
| 1777084842 | 23.89° C | 67% | 1011.3 hPa | 0 mm | - | - | - |
| 1777083342 | 24.44° C | 63% | 1011 hPa | 0 mm | - | - | - |
| 1777083043 | 24.44° C | 63% | 1011 hPa | 0 mm | - | - | - |
| 1777082741 | 24.44° C | 63% | 1011.1 hPa | 0 mm | - | - | - |
| 1777082443 | 24.44° C | 61% | 1011.1 hPa | 0 mm | - | - | - |
| 1777081541 | 24.44° C | 59% | 1011.1 hPa | 0 mm | - | - | - |
| 1777081243 | 23.89° C | 59% | 1010.9 hPa | 0 mm | - | - | - |
| 1777078540 | 23.89° C | 57% | 1010 hPa | 0 mm | - | - | - |
| 1777077339 | 24.44° C | 57% | 1010.1 hPa | 0 mm | - | - | - |
| 1777076740 | 25° C | 57% | 1009.8 hPa | 0 mm | - | - | - |
| 1777076442 | 25° C | 56% | 1010 hPa | 0 mm | - | - | - |
| 1777075540 | 25.56° C | 53% | 1009.9 hPa | 0 mm | - | - | - |
| 1777071940 | 27.22° C | 42% | 1009.1 hPa | 0 mm | - | - | - |
| 1777069540 | 29.44° C | 37% | 1009.3 hPa | 0 mm | - | - | - |
| 1777066843 | 30° C | 37% | 1009.2 hPa | 0 mm | - | - | - |
| 1777065042 | 30° C | 35% | 1009.2 hPa | 0 mm | - | - | - |
| 1777064140 | 30° C | 36% | 1009.5 hPa | 0 mm | - | - | - |
* Rain latest hour (hover to see other rain measurements)
** Current wind speed in m/s (hover to see current wind gust speed)